createdAt,value
2023-01-01T00:02:25.703Z,15.20
2023-01-01T00:04:52.664Z,15.20
2023-01-01T00:07:19.720Z,15.20
2023-01-01T00:10:04.954Z,15.30
2023-01-01T00:12:33.428Z,15.30
2023-01-01T00:15:00.265Z,15.30
2023-01-01T00:17:29.801Z,15.30
2023-01-01T00:19:56.788Z,15.30
2023-01-01T00:25:15.340Z,15.40
2023-01-01T00:27:42.574Z,15.40
2023-01-01T00:30:10.956Z,15.50
2023-01-01T00:32:37.827Z,15.50
2023-01-01T00:35:05.263Z,15.60
2023-01-01T00:37:32.157Z,15.60
2023-01-01T00:39:59.023Z,15.70
2023-01-01T00:42:25.970Z,15.70
2023-01-01T00:44:52.768Z,15.70
2023-01-01T00:47:19.690Z,15.70
2023-01-01T00:49:46.468Z,15.80
2023-01-01T00:52:13.298Z,15.80
2023-01-01T00:54:40.238Z,15.80
2023-01-01T00:57:07.187Z,15.80
2023-01-01T00:59:34.016Z,15.90
2023-01-01T01:02:01.368Z,15.90
2023-01-01T01:04:28.393Z,15.90
2023-01-01T01:06:55.258Z,16.10
2023-01-01T01:09:22.136Z,15.90
2023-01-01T01:11:49.064Z,15.90
2023-01-01T01:14:15.976Z,16.00
2023-01-01T01:16:42.820Z,16.00
2023-01-01T01:19:15.108Z,16.00
2023-01-01T01:21:42.626Z,16.00
2023-01-01T01:24:10.080Z,16.10
2023-01-01T01:26:37.033Z,16.00
2023-01-01T01:29:04.567Z,16.00
2023-01-01T01:31:33.053Z,16.00
2023-01-01T01:34:00.119Z,16.00
2023-01-01T01:36:28.203Z,16.00
2023-01-01T01:38:56.098Z,16.00
2023-01-01T01:41:27.800Z,16.00
2023-01-01T01:44:33.960Z,16.00
2023-01-01T01:47:02.601Z,16.00
2023-01-01T01:49:32.011Z,16.00
2023-01-01T01:52:00.925Z,16.00
2023-01-01T01:54:29.205Z,16.00
2023-01-01T01:57:01.493Z,15.90
2023-01-01T01:59:33.537Z,15.90
2023-01-01T02:02:01.662Z,15.80
2023-01-01T02:04:29.510Z,15.70
2023-01-01T02:06:56.501Z,15.60
2023-01-01T02:09:23.546Z,15.50
2023-01-01T02:11:50.436Z,15.50
2023-01-01T02:14:17.390Z,15.50
2023-01-01T02:16:50.469Z,15.50
2023-01-01T02:19:32.426Z,15.50
2023-01-01T02:22:06.943Z,15.50
2023-01-01T02:24:59.827Z,15.50
2023-01-01T02:27:36.131Z,15.50
2023-01-01T02:30:08.555Z,15.40
2023-01-01T02:32:46.951Z,15.40
2023-01-01T02:35:34.484Z,15.40
2023-01-01T02:38:10.281Z,15.40
2023-01-01T02:40:46.398Z,15.30
2023-01-01T02:43:13.639Z,15.30
2023-01-01T02:45:40.493Z,15.30
2023-01-01T02:48:56.545Z,15.30
2023-01-01T02:51:23.580Z,15.30
2023-01-01T02:53:59.443Z,15.30
2023-01-01T02:56:41.630Z,15.30
2023-01-01T02:59:50.980Z,15.40
2023-01-01T03:02:36.789Z,15.40
2023-01-01T03:05:25.016Z,15.40
2023-01-01T03:08:03.850Z,15.40
2023-01-01T03:10:47.340Z,15.40
2023-01-01T03:13:27.518Z,15.30
2023-01-01T03:16:09.465Z,15.40
2023-01-01T03:19:13.503Z,15.30
2023-01-01T03:21:55.398Z,15.40
2023-01-01T03:24:22.229Z,15.30
2023-01-01T03:26:53.097Z,15.30
2023-01-01T03:29:21.331Z,15.30
2023-01-01T03:31:51.018Z,15.30
2023-01-01T03:34:22.183Z,15.30
2023-01-01T03:36:55.188Z,15.30
2023-01-01T03:39:36.432Z,15.30
2023-01-01T03:42:18.285Z,15.30
2023-01-01T03:44:54.208Z,15.40
2023-01-01T03:47:21.120Z,15.30
2023-01-01T03:49:48.225Z,15.30
2023-01-01T03:52:33.961Z,15.30
2023-01-01T03:55:09.040Z,15.30
2023-01-01T03:57:41.750Z,15.20
2023-01-01T04:00:10.271Z,15.20
2023-01-01T04:02:52.409Z,15.20
2023-01-01T04:05:21.094Z,15.10
2023-01-01T04:10:18.177Z,15.10
2023-01-01T04:12:49.255Z,15.00
2023-01-01T04:15:18.732Z,15.00
2023-01-01T04:17:45.927Z,15.00
2023-01-01T04:20:13.269Z,14.90
2023-01-01T04:22:40.217Z,14.90
2023-01-01T04:25:08.279Z,14.90
2023-01-01T04:27:35.409Z,14.80
2023-01-01T04:30:02.719Z,14.70
2023-01-01T04:32:30.330Z,14.80
2023-01-01T04:34:57.202Z,14.70
2023-01-01T04:37:24.031Z,14.70
2023-01-01T04:39:50.856Z,14.70
2023-01-01T04:42:17.820Z,14.70
2023-01-01T04:44:44.700Z,14.70
2023-01-01T04:47:11.579Z,14.60
2023-01-01T04:49:38.430Z,14.60
2023-01-01T04:52:05.692Z,14.60
2023-01-01T04:54:32.773Z,14.60
2023-01-01T04:56:59.785Z,14.60
2023-01-01T04:59:26.754Z,14.60
2023-01-01T05:01:53.749Z,14.60
2023-01-01T05:04:20.892Z,14.60
2023-01-01T05:06:47.923Z,14.60
2023-01-01T05:09:14.841Z,14.50
2023-01-01T05:11:41.935Z,14.50
2023-01-01T05:14:08.797Z,14.50
2023-01-01T05:16:38.263Z,14.50
2023-01-01T05:19:06.458Z,14.50
2023-01-01T05:21:35.867Z,14.40
2023-01-01T05:24:08.785Z,14.50
2023-01-01T05:26:38.524Z,14.50
2023-01-01T05:29:11.926Z,14.50
2023-01-01T05:31:42.941Z,14.50
2023-01-01T05:34:09.887Z,14.50
2023-01-01T05:36:38.992Z,14.50
2023-01-01T05:39:12.080Z,14.50
2023-01-01T05:41:39.873Z,14.50
2023-01-01T05:44:08.838Z,14.60
2023-01-01T05:46:36.201Z,14.60
2023-01-01T05:49:03.860Z,14.60
2023-01-01T05:53:58.787Z,15.00
2023-01-01T05:56:26.677Z,14.70
2023-01-01T05:58:53.938Z,14.80
2023-01-01T06:01:22.433Z,14.80
2023-01-01T06:03:50.214Z,14.90
2023-01-01T06:06:19.922Z,14.90
2023-01-01T06:08:54.999Z,14.90
2023-01-01T06:11:22.868Z,14.90
2023-01-01T06:13:53.485Z,15.00
2023-01-01T06:16:20.950Z,15.00
2023-01-01T06:18:47.864Z,15.00
2023-01-01T06:21:20.477Z,15.00
2023-01-01T06:23:47.323Z,15.00
2023-01-01T06:26:16.869Z,15.00
2023-01-01T06:28:45.269Z,15.10
2023-01-01T06:31:13.974Z,15.10
2023-01-01T06:33:41.087Z,15.10
2023-01-01T06:36:10.629Z,15.00
2023-01-01T06:38:39.863Z,15.10
2023-01-01T06:41:10.332Z,15.10
2023-01-01T06:43:37.571Z,15.00
2023-01-01T06:46:08.626Z,15.00
2023-01-01T06:48:36.794Z,15.00
2023-01-01T06:51:09.658Z,15.00
2023-01-01T06:53:36.938Z,15.00
2023-01-01T06:56:05.133Z,14.90
2023-01-01T06:58:32.321Z,14.90
2023-01-01T07:01:10.678Z,14.90
2023-01-01T07:03:38.679Z,14.90
2023-01-01T07:06:07.063Z,15.00
2023-01-01T07:08:34.851Z,14.90
2023-01-01T07:11:02.423Z,14.80
2023-01-01T07:13:30.488Z,14.80
2023-01-01T07:15:57.659Z,14.80
2023-01-01T07:18:26.135Z,14.80
2023-01-01T07:20:56.609Z,14.80
2023-01-01T07:23:24.392Z,14.80
2023-01-01T07:25:52.618Z,14.80
2023-01-01T07:28:20.828Z,14.80
2023-01-01T07:30:48.740Z,15.10
2023-01-01T07:33:18.244Z,14.80
2023-01-01T07:35:45.956Z,14.80
2023-01-01T07:38:14.157Z,14.90
2023-01-01T07:40:41.566Z,14.90
2023-01-01T07:43:08.760Z,15.00
2023-01-01T07:45:35.958Z,15.00
2023-01-01T07:48:02.918Z,15.00
2023-01-01T07:50:32.013Z,15.00
2023-01-01T07:52:59.402Z,15.30
2023-01-01T07:55:26.986Z,15.10
2023-01-01T07:57:54.020Z,15.10
2023-01-01T08:00:22.490Z,15.10
2023-01-01T08:02:49.936Z,15.10
2023-01-01T08:05:22.681Z,15.30
2023-01-01T08:07:53.149Z,15.20
2023-01-01T08:10:20.908Z,15.30
2023-01-01T08:12:47.994Z,15.30
2023-01-01T08:15:15.561Z,15.30
2023-01-01T08:17:46.533Z,15.30
2023-01-01T08:20:14.144Z,15.40
2023-01-01T08:22:41.110Z,15.40
2023-01-01T08:25:08.608Z,15.50
2023-01-01T08:27:35.773Z,15.50
2023-01-01T08:30:06.252Z,15.50
2023-01-01T08:32:33.094Z,15.40
2023-01-01T08:35:02.723Z,15.40
2023-01-01T08:37:29.593Z,15.40
2023-01-01T08:39:56.510Z,15.40
2023-01-01T08:42:23.489Z,15.40
2023-01-01T08:44:50.427Z,15.40
2023-01-01T08:47:25.279Z,15.50
2023-01-01T08:49:52.475Z,15.60
2023-01-01T08:52:20.214Z,15.60
2023-01-01T08:54:47.120Z,15.70
2023-01-01T08:57:14.066Z,15.80
2023-01-01T08:59:40.975Z,16.00
2023-01-01T09:02:08.350Z,15.80
2023-01-01T09:04:35.441Z,15.80
2023-01-01T09:07:05.327Z,15.80
2023-01-01T09:09:32.166Z,16.00
2023-01-01T09:12:06.162Z,15.80
2023-01-01T09:14:36.198Z,15.70
2023-01-01T09:17:03.669Z,15.70
2023-01-01T09:19:30.648Z,15.70
2023-01-01T09:21:58.186Z,15.70
2023-01-01T09:24:25.181Z,15.80
2023-01-01T09:26:52.124Z,15.80
2023-01-01T09:29:20.721Z,15.90
2023-01-01T09:31:48.847Z,15.90
2023-01-01T09:34:16.591Z,16.00
2023-01-01T09:36:44.047Z,16.00
2023-01-01T09:39:14.040Z,16.10
2023-01-01T09:41:56.370Z,16.10
2023-01-01T09:44:38.939Z,16.10
2023-01-01T09:47:31.329Z,16.10
2023-01-01T09:50:05.342Z,16.10
2023-01-01T09:52:41.563Z,16.10
2023-01-01T09:55:34.290Z,16.20
2023-01-01T09:58:03.873Z,16.20
2023-01-01T10:00:33.685Z,16.30
2023-01-01T10:03:11.255Z,16.30
2023-01-01T10:05:56.077Z,16.20
2023-01-01T10:08:51.577Z,16.30
2023-01-01T10:11:46.539Z,16.30
2023-01-01T10:14:28.832Z,16.40
2023-01-01T10:16:58.838Z,16.40
2023-01-01T10:19:35.036Z,16.40
2023-01-01T10:22:08.675Z,16.40
2023-01-01T10:24:57.856Z,16.50
2023-01-01T10:27:44.149Z,16.50
2023-01-01T10:30:18.850Z,16.50
2023-01-01T10:32:53.174Z,16.60
2023-01-01T10:35:31.371Z,16.50
2023-01-01T10:38:02.213Z,16.50
2023-01-01T10:40:30.291Z,16.60
2023-01-01T10:42:59.732Z,16.50
2023-01-01T10:45:53.983Z,16.50
2023-01-01T10:48:26.226Z,16.40
2023-01-01T10:50:56.089Z,16.40
2023-01-01T10:53:40.170Z,16.30
2023-01-01T10:56:17.926Z,16.30
2023-01-01T10:58:47.733Z,16.20
2023-01-01T11:01:17.776Z,16.20
2023-01-01T11:03:55.571Z,16.20
2023-01-01T11:06:23.822Z,16.20
2023-01-01T11:08:53.891Z,16.20
2023-01-01T11:11:30.348Z,16.20
2023-01-01T11:14:22.261Z,16.30
2023-01-01T11:16:49.786Z,16.30
2023-01-01T11:19:30.725Z,16.30
2023-01-01T11:21:58.024Z,16.30
2023-01-01T11:24:27.764Z,16.20
2023-01-01T11:27:22.342Z,16.20
2023-01-01T11:29:51.375Z,16.10
2023-01-01T11:32:23.523Z,16.10
2023-01-01T11:35:06.251Z,16.10
2023-01-01T11:37:37.738Z,16.10
2023-01-01T11:40:17.061Z,16.00
2023-01-01T11:42:50.127Z,15.80
2023-01-01T11:45:37.851Z,15.80
2023-01-01T11:48:13.896Z,15.70
2023-01-01T11:50:53.756Z,15.70
2023-01-01T11:53:27.031Z,15.80
2023-01-01T11:56:16.474Z,15.80
2023-01-01T11:59:03.880Z,15.80
2023-01-01T12:01:53.877Z,15.80
2023-01-01T12:04:36.417Z,15.70
2023-01-01T12:07:14.463Z,15.70
2023-01-01T12:10:03.083Z,15.60
2023-01-01T12:12:35.630Z,15.70
2023-01-01T12:15:21.892Z,15.60
2023-01-01T12:18:15.091Z,15.70
2023-01-01T12:20:52.563Z,15.60
2023-01-01T12:23:20.047Z,15.60
2023-01-01T12:26:18.433Z,15.60
2023-01-01T12:29:10.266Z,15.60
2023-01-01T12:31:45.969Z,15.60
2023-01-01T12:34:20.526Z,15.60
2023-01-01T12:37:02.567Z,15.50
2023-01-01T12:40:06.179Z,15.40
2023-01-01T12:43:01.702Z,15.30
2023-01-01T12:45:42.739Z,15.30
2023-01-01T12:48:37.649Z,15.20
2023-01-01T12:51:36.762Z,15.20
2023-01-01T12:54:31.142Z,15.20
2023-01-01T12:57:07.991Z,15.10
2023-01-01T12:59:39.977Z,15.10
2023-01-01T13:02:26.852Z,15.10
2023-01-01T13:04:58.461Z,15.20
2023-01-01T13:07:38.782Z,15.20
2023-01-01T13:10:19.460Z,15.20
2023-01-01T13:12:46.807Z,15.20
2023-01-01T13:15:38.816Z,15.20
2023-01-01T13:18:13.132Z,15.20
2023-01-01T13:20:47.592Z,15.30
2023-01-01T13:23:34.512Z,15.30
2023-01-01T13:26:22.920Z,15.20
2023-01-01T13:28:58.876Z,15.10
2023-01-01T13:31:43.976Z,15.00
2023-01-01T13:34:37.574Z,15.20
2023-01-01T13:37:10.719Z,14.90
2023-01-01T13:40:05.609Z,14.90
2023-01-01T13:42:44.605Z,14.80
2023-01-01T13:45:30.335Z,14.70
2023-01-01T13:48:19.530Z,14.60
2023-01-01T13:50:58.460Z,14.60
2023-01-01T13:53:43.327Z,14.50
2023-01-01T13:56:19.533Z,14.40
2023-01-01T13:58:53.134Z,14.50
2023-01-01T14:01:41.719Z,14.30
2023-01-01T14:04:25.702Z,14.20
2023-01-01T14:06:54.583Z,14.20
2023-01-01T14:09:22.304Z,14.10
2023-01-01T14:11:49.164Z,14.00
2023-01-01T14:14:36.180Z,14.00
2023-01-01T14:17:07.432Z,14.00
2023-01-01T14:19:35.182Z,13.90
2023-01-01T14:22:06.222Z,13.90
2023-01-01T14:24:43.387Z,13.80
2023-01-01T14:27:18.100Z,13.80
2023-01-01T14:29:48.304Z,13.70
2023-01-01T14:32:22.027Z,13.70
2023-01-01T14:35:00.131Z,13.60
2023-01-01T14:37:27.052Z,13.50
2023-01-01T14:40:16.161Z,13.60
2023-01-01T14:42:45.095Z,13.50
2023-01-01T14:45:18.744Z,13.60
2023-01-01T14:47:52.162Z,13.40
2023-01-01T14:50:31.289Z,13.40
2023-01-01T14:53:06.928Z,13.40
2023-01-01T14:55:46.099Z,13.50
2023-01-01T14:58:20.678Z,13.80
2023-01-01T15:00:47.966Z,13.50
2023-01-01T15:03:18.597Z,13.40
2023-01-01T15:06:00.776Z,13.40
2023-01-01T15:08:28.053Z,13.40
2023-01-01T15:10:56.539Z,13.40
2023-01-01T15:13:26.074Z,13.60
2023-01-01T15:16:14.566Z,13.30
2023-01-01T15:18:43.371Z,13.30
2023-01-01T15:21:16.815Z,13.20
2023-01-01T15:23:54.007Z,13.20
2023-01-01T15:26:43.427Z,13.20
2023-01-01T15:29:19.083Z,13.20
2023-01-01T15:31:53.867Z,13.40
2023-01-01T15:34:27.266Z,13.10
2023-01-01T15:36:56.172Z,13.10
2023-01-01T15:39:23.329Z,13.10
2023-01-01T15:41:52.456Z,13.10
2023-01-01T15:44:25.883Z,13.00
2023-01-01T15:46:53.301Z,13.10
2023-01-01T15:49:26.305Z,13.10
2023-01-01T15:52:05.532Z,13.10
2023-01-01T15:54:38.644Z,13.10
2023-01-01T15:57:18.344Z,13.20
2023-01-01T15:59:45.601Z,13.20
2023-01-01T16:02:24.639Z,13.20
2023-01-01T16:04:51.834Z,13.20
2023-01-01T16:07:23.232Z,13.30
2023-01-01T16:09:57.480Z,13.30
2023-01-01T16:12:25.584Z,13.30
2023-01-01T16:14:52.539Z,13.30
2023-01-01T16:17:20.921Z,13.40
2023-01-01T16:19:48.209Z,13.40
2023-01-01T16:22:16.956Z,13.70
2023-01-01T16:24:45.448Z,13.50
2023-01-01T16:27:12.848Z,13.50
2023-01-01T16:29:43.218Z,13.50
2023-01-01T16:32:18.284Z,13.50
2023-01-01T16:34:45.291Z,13.60
2023-01-01T16:37:24.811Z,13.60
2023-01-01T16:39:59.451Z,13.60
2023-01-01T16:42:26.347Z,13.60
2023-01-01T16:44:54.598Z,13.60
2023-01-01T16:47:22.967Z,13.80
2023-01-01T16:49:50.028Z,13.70
2023-01-01T16:52:16.964Z,13.70
2023-01-01T16:54:44.267Z,13.70
2023-01-01T16:57:11.337Z,13.70
2023-01-01T16:59:38.392Z,13.70
2023-01-01T17:02:05.374Z,13.70
2023-01-01T17:04:32.438Z,13.70
2023-01-01T17:06:59.282Z,13.80
2023-01-01T17:09:26.378Z,13.80
2023-01-01T17:11:53.425Z,13.80
2023-01-01T17:14:20.599Z,13.80
2023-01-01T17:16:47.572Z,13.80
2023-01-01T17:19:16.308Z,13.80
2023-01-01T17:21:48.087Z,13.80
2023-01-01T17:24:17.312Z,13.80
2023-01-01T17:26:44.582Z,13.80
2023-01-01T17:29:11.928Z,13.80
2023-01-01T17:37:33.227Z,13.90
2023-01-01T17:45:44.726Z,13.90
2023-01-01T17:48:19.029Z,13.90
2023-01-01T17:50:48.476Z,14.00
2023-01-01T17:59:32.696Z,14.00
2023-01-01T18:05:00.221Z,14.00
2023-01-01T18:07:27.329Z,14.00
2023-01-01T18:09:54.334Z,14.10
2023-01-01T18:12:29.211Z,14.10
2023-01-01T18:17:44.061Z,14.20
2023-01-01T18:20:11.377Z,14.20
2023-01-01T18:22:43.024Z,14.20
2023-01-01T18:25:11.198Z,14.20
2023-01-01T18:27:38.806Z,14.20
2023-01-01T18:30:06.699Z,14.20
2023-01-01T18:32:33.724Z,14.30
2023-01-01T18:37:49.765Z,14.20
2023-01-01T18:40:17.910Z,14.10
2023-01-01T18:42:57.979Z,14.00
2023-01-01T18:45:26.472Z,14.00
2023-01-01T18:47:55.061Z,13.90
2023-01-01T18:50:26.650Z,13.80
2023-01-01T18:53:17.093Z,13.70
2023-01-01T18:55:44.395Z,13.70
2023-01-01T18:58:32.900Z,13.60
2023-01-01T19:01:00.555Z,13.60
2023-01-01T19:03:28.600Z,13.70
2023-01-01T19:05:57.420Z,13.70
2023-01-01T19:08:28.752Z,13.70
2023-01-01T19:10:59.168Z,13.70
2023-01-01T19:13:33.305Z,13.70
2023-01-01T19:16:12.712Z,13.80
2023-01-01T19:18:43.993Z,13.80
2023-01-01T19:21:10.956Z,13.80
2023-01-01T19:23:58.959Z,13.90
2023-01-01T19:26:33.084Z,13.90
2023-01-01T19:29:14.865Z,13.90
2023-01-01T19:31:42.127Z,14.00
2023-01-01T19:34:09.297Z,14.00
2023-01-01T19:36:36.341Z,14.10
2023-01-01T19:39:04.006Z,14.10
2023-01-01T19:41:30.955Z,14.10
2023-01-01T19:43:58.033Z,14.10
2023-01-01T19:46:24.977Z,14.20
2023-01-01T19:50:18.461Z,14.20
2023-01-01T19:52:45.504Z,14.20
2023-01-01T19:55:12.463Z,14.20
2023-01-01T20:00:33.762Z,14.30
2023-01-01T20:03:34.201Z,14.30
2023-01-01T20:05:47.999Z,14.30
2023-01-01T20:08:14.903Z,14.30
2023-01-01T20:10:41.824Z,14.30
2023-01-01T20:13:09.480Z,14.30
2023-01-01T20:15:39.211Z,14.40
2023-01-01T20:18:10.260Z,14.40
2023-01-01T20:20:37.203Z,14.40
2023-01-01T20:23:04.191Z,14.40
2023-01-01T20:25:31.331Z,14.40
2023-01-01T20:28:16.745Z,14.40
2023-01-01T20:30:43.730Z,14.30
2023-01-01T20:33:10.638Z,14.20
2023-01-01T20:35:56.310Z,14.10
2023-01-01T20:38:23.386Z,14.10
2023-01-01T20:40:50.418Z,14.00
2023-01-01T20:43:17.331Z,13.80
2023-01-01T20:45:44.344Z,13.80
2023-01-01T20:48:16.218Z,13.70
2023-01-01T20:50:46.499Z,13.60
2023-01-01T20:53:13.444Z,13.90
2023-01-01T20:55:40.416Z,13.50
2023-01-01T20:58:07.417Z,13.50
2023-01-01T21:00:34.530Z,13.40
2023-01-01T21:03:01.692Z,13.40
2023-01-01T21:05:28.732Z,13.10
2023-01-01T21:07:55.861Z,13.20
2023-01-01T21:10:23.009Z,13.30
2023-01-01T21:12:49.943Z,13.20
2023-01-01T21:15:17.948Z,13.10
2023-01-01T21:17:45.031Z,13.10
2023-01-01T21:20:13.107Z,13.10
2023-01-01T21:22:43.876Z,13.10
2023-01-01T21:25:50.530Z,13.10
2023-01-01T21:28:13.979Z,13.10
2023-01-01T21:30:55.653Z,13.10
2023-01-01T21:33:28.642Z,13.10
2023-01-01T21:35:56.292Z,13.10
2023-01-01T21:38:27.670Z,13.10
2023-01-01T21:40:59.629Z,13.10
2023-01-01T21:43:32.527Z,13.10
2023-01-01T21:46:18.101Z,13.10
2023-01-01T21:49:29.024Z,13.10
2023-01-01T21:52:01.108Z,13.10
2023-01-01T21:54:32.823Z,13.10
2023-01-01T21:57:17.252Z,13.10
2023-01-01T21:59:48.390Z,13.10
2023-01-01T22:02:29.149Z,13.10
2023-01-01T22:04:56.441Z,13.10
2023-01-01T22:07:56.909Z,13.00
2023-01-01T22:10:25.482Z,13.00
2023-01-01T22:13:00.931Z,13.00
2023-01-01T22:15:33.904Z,13.00
2023-01-01T22:18:09.954Z,13.00
2023-01-01T22:20:38.891Z,12.90
2023-01-01T22:23:19.569Z,13.00
2023-01-01T22:25:47.719Z,12.80
2023-01-01T22:28:25.034Z,13.00
2023-01-01T22:30:55.572Z,13.00
2023-01-01T22:33:29.713Z,12.90
2023-01-01T22:35:57.515Z,12.90
2023-01-01T22:38:32.863Z,12.90
2023-01-01T22:41:00.522Z,12.90
2023-01-01T22:43:31.902Z,12.90
2023-01-01T22:46:03.197Z,12.80
2023-01-01T22:48:36.577Z,12.90
2023-01-01T22:51:13.869Z,12.90
2023-01-01T22:53:40.762Z,13.10
2023-01-01T22:56:07.939Z,13.10
2023-01-01T22:58:34.850Z,12.90
2023-01-01T23:01:01.808Z,12.90
2023-01-01T23:03:28.901Z,12.90
2023-01-01T23:05:56.575Z,13.00
2023-01-01T23:08:24.633Z,12.90
2023-01-01T23:10:52.889Z,12.90
2023-01-01T23:13:38.192Z,13.00
2023-01-01T23:16:05.266Z,13.00
2023-01-01T23:18:34.701Z,13.00
2023-01-01T23:21:26.748Z,13.00
2023-01-01T23:23:56.646Z,13.00
2023-01-01T23:26:25.252Z,12.90
2023-01-01T23:28:54.403Z,12.90
2023-01-01T23:31:25.560Z,12.90
2023-01-01T23:33:54.809Z,12.90
2023-01-01T23:36:22.991Z,12.90
2023-01-01T23:38:49.948Z,12.90
2023-01-01T23:41:19.875Z,12.90
2023-01-01T23:43:46.740Z,12.90
2023-01-01T23:46:14.496Z,13.10
2023-01-01T23:48:43.359Z,12.90
2023-01-01T23:51:10.426Z,12.90
2023-01-01T23:53:37.321Z,13.10
2023-01-01T23:56:04.380Z,12.90
2023-01-01T23:58:31.281Z,12.90
